createdAt,value
2023-05-09T00:01:50.114Z,14.10
2023-05-09T00:03:53.497Z,14.70
2023-05-09T00:05:56.945Z,15.50
2023-05-09T00:08:00.375Z,14.30
2023-05-09T00:10:04.161Z,13.50
2023-05-09T00:12:07.970Z,13.57
2023-05-09T00:14:12.413Z,15.37
2023-05-09T00:16:16.930Z,15.03
2023-05-09T00:18:22.108Z,17.20
2023-05-09T00:20:25.713Z,14.93
2023-05-09T00:22:29.078Z,15.60
2023-05-09T00:24:32.486Z,15.60
2023-05-09T00:26:35.851Z,14.33
2023-05-09T00:28:39.223Z,17.07
2023-05-09T00:30:42.569Z,14.57
2023-05-09T00:32:46.099Z,16.43
2023-05-09T00:34:51.614Z,16.40
2023-05-09T00:36:54.986Z,19.30
2023-05-09T00:38:58.412Z,19.73
2023-05-09T00:41:01.776Z,20.47
2023-05-09T00:43:05.286Z,18.63
2023-05-09T00:45:10.048Z,19.27
2023-05-09T00:47:13.493Z,18.30
2023-05-09T00:49:17.034Z,19.17
2023-05-09T00:51:21.989Z,19.03
2023-05-09T00:53:25.790Z,16.00
2023-05-09T00:55:29.423Z,17.17
2023-05-09T00:57:33.315Z,15.70
2023-05-09T00:59:37.114Z,17.23
2023-05-09T01:01:40.922Z,14.47
2023-05-09T01:03:44.927Z,12.93
2023-05-09T01:05:57.556Z,16.00
2023-05-09T01:08:11.489Z,16.83
2023-05-09T01:10:22.543Z,19.47
2023-05-09T01:12:35.796Z,19.80
2023-05-09T01:14:45.739Z,17.57
2023-05-09T01:16:58.703Z,18.53
2023-05-09T01:19:13.671Z,18.60
2023-05-09T01:21:21.381Z,17.47
2023-05-09T01:24:00.594Z,19.27
2023-05-09T01:26:05.556Z,18.13
2023-05-09T01:28:15.483Z,18.20
2023-05-09T01:30:21.628Z,18.80
2023-05-09T01:32:27.878Z,17.57
2023-05-09T01:34:33.616Z,17.80
2023-05-09T01:36:39.188Z,18.20
2023-05-09T01:38:45.206Z,18.53
2023-05-09T01:40:52.780Z,18.07
2023-05-09T01:42:59.299Z,18.40
2023-05-09T01:45:03.930Z,17.63
2023-05-09T01:47:09.626Z,18.50
2023-05-09T01:49:13.618Z,17.60
2023-05-09T01:51:20.030Z,18.10
2023-05-09T01:53:25.217Z,17.93
2023-05-09T01:55:32.986Z,19.17
2023-05-09T01:57:38.687Z,22.73
2023-05-09T01:59:47.430Z,20.07
2023-05-09T02:01:51.170Z,19.77
2023-05-09T02:03:57.559Z,20.37
2023-05-09T02:06:04.349Z,19.17
2023-05-09T02:08:09.386Z,18.27
2023-05-09T02:10:13.798Z,17.93
2023-05-09T02:12:17.277Z,18.53
2023-05-09T02:14:23.179Z,19.67
2023-05-09T02:16:27.770Z,17.73
2023-05-09T02:18:32.674Z,16.63
2023-05-09T02:20:38.471Z,17.60
2023-05-09T02:22:43.739Z,17.40
2023-05-09T02:24:47.151Z,17.37
2023-05-09T02:26:50.536Z,16.00
2023-05-09T02:28:55.879Z,17.90
2023-05-09T02:31:03.455Z,18.17
2023-05-09T02:33:09.622Z,18.37
2023-05-09T02:35:16.492Z,17.63
2023-05-09T02:37:22.011Z,17.87
2023-05-09T02:39:25.678Z,19.10
2023-05-09T02:41:29.424Z,18.60
2023-05-09T02:43:32.913Z,16.90
2023-05-09T02:45:36.376Z,18.00
2023-05-09T02:47:40.834Z,18.80
2023-05-09T02:49:44.742Z,18.20
2023-05-09T02:51:49.345Z,17.40
2023-05-09T02:53:54.013Z,17.77
2023-05-09T02:55:57.408Z,16.93
2023-05-09T02:58:12.751Z,17.53
2023-05-09T03:00:19.863Z,17.73
2023-05-09T03:02:23.933Z,17.77
2023-05-09T03:04:28.279Z,19.97
2023-05-09T03:06:31.806Z,17.37
2023-05-09T03:08:35.173Z,18.97
2023-05-09T03:10:40.697Z,15.40
2023-05-09T03:12:44.623Z,20.00
2023-05-09T03:14:48.925Z,21.50
2023-05-09T03:16:52.386Z,20.27
2023-05-09T03:19:01.557Z,18.77
2023-05-09T03:21:05.890Z,18.63
2023-05-09T03:23:12.353Z,18.20
2023-05-09T03:25:16.283Z,21.63
2023-05-09T03:27:21.146Z,17.57
2023-05-09T03:29:26.091Z,17.53
2023-05-09T03:31:31.004Z,20.57
2023-05-09T03:33:34.480Z,20.43
2023-05-09T03:35:38.468Z,17.10
2023-05-09T03:37:41.770Z,19.07
2023-05-09T03:39:45.817Z,16.67
2023-05-09T03:41:49.757Z,17.87
2023-05-09T03:43:55.039Z,16.73
2023-05-09T03:45:58.411Z,16.17
2023-05-09T03:48:05.175Z,18.30
2023-05-09T03:50:09.837Z,16.73
2023-05-09T03:52:13.645Z,21.80
2023-05-09T03:54:17.296Z,19.30
2023-05-09T03:56:20.729Z,18.27
2023-05-09T03:58:27.768Z,17.43
2023-05-09T04:00:32.695Z,16.00
2023-05-09T04:02:44.007Z,17.30
2023-05-09T04:04:56.216Z,18.20
2023-05-09T04:07:00.108Z,15.47
2023-05-09T04:09:03.901Z,16.67
2023-05-09T04:11:07.393Z,20.17
2023-05-09T04:13:12.901Z,21.87
2023-05-09T04:15:18.251Z,19.53
2023-05-09T04:17:24.739Z,19.80
2023-05-09T04:19:30.348Z,17.57
2023-05-09T04:21:37.562Z,17.30
2023-05-09T04:23:43.915Z,19.60
2023-05-09T04:25:51.348Z,20.37
2023-05-09T04:27:55.080Z,24.63
2023-05-09T04:29:58.668Z,20.53
2023-05-09T04:32:02.603Z,20.30
2023-05-09T04:34:07.844Z,18.27
2023-05-09T04:36:13.768Z,18.60
2023-05-09T04:38:17.305Z,18.77
2023-05-09T04:40:20.939Z,17.83
2023-05-09T04:42:33.413Z,18.47
2023-05-09T04:44:37.015Z,17.37
2023-05-09T04:46:41.187Z,16.47
2023-05-09T04:48:44.645Z,20.10
2023-05-09T04:50:49.593Z,20.00
2023-05-09T04:52:52.881Z,18.17
2023-05-09T04:54:57.161Z,16.90
2023-05-09T04:57:17.234Z,17.00
2023-05-09T04:59:24.696Z,19.60
2023-05-09T05:01:28.952Z,19.63
2023-05-09T05:03:32.856Z,23.30
2023-05-09T05:05:37.671Z,23.40
2023-05-09T05:07:46.553Z,22.60
2023-05-09T05:09:55.738Z,22.33
2023-05-09T05:12:02.050Z,25.00
2023-05-09T05:14:07.653Z,26.83
2023-05-09T05:16:11.420Z,24.67
2023-05-09T05:18:15.061Z,27.57
2023-05-09T05:20:18.691Z,25.40
2023-05-09T05:22:24.200Z,23.90
2023-05-09T05:24:29.808Z,22.17
2023-05-09T05:26:33.516Z,24.90
2023-05-09T05:28:37.475Z,23.00
2023-05-09T05:30:42.016Z,23.83
2023-05-09T05:32:45.660Z,22.57
2023-05-09T05:34:51.279Z,24.20
2023-05-09T05:36:55.194Z,24.20
2023-05-09T05:38:58.738Z,23.50
2023-05-09T05:41:03.774Z,25.83
2023-05-09T05:43:07.562Z,23.17
2023-05-09T05:45:13.345Z,23.77
2023-05-09T05:47:20.760Z,23.73
2023-05-09T05:49:25.097Z,24.10
2023-05-09T05:51:28.469Z,23.47
2023-05-09T05:53:32.866Z,22.77
2023-05-09T05:55:36.677Z,19.63
2023-05-09T05:57:43.725Z,22.93
2023-05-09T05:59:51.369Z,21.20
2023-05-09T06:01:55.118Z,21.57
2023-05-09T06:03:58.984Z,19.20
2023-05-09T06:06:05.949Z,19.57
2023-05-09T06:08:09.325Z,20.60
2023-05-09T06:10:12.913Z,18.50
2023-05-09T06:12:17.123Z,21.57
2023-05-09T06:14:21.918Z,20.03
2023-05-09T06:16:25.676Z,20.07
2023-05-09T06:18:29.980Z,19.20
2023-05-09T06:20:33.300Z,19.20
2023-05-09T06:22:36.616Z,24.83
2023-05-09T06:24:40.026Z,23.23
2023-05-09T06:26:43.498Z,20.67
2023-05-09T06:28:46.848Z,22.10
2023-05-09T06:30:51.622Z,22.30
2023-05-09T06:32:55.543Z,21.07
2023-05-09T06:34:58.995Z,23.07
2023-05-09T06:37:02.464Z,18.53
2023-05-09T06:39:05.974Z,18.37
2023-05-09T06:41:09.396Z,19.30
2023-05-09T06:43:12.953Z,18.10
2023-05-09T06:45:16.670Z,18.17
2023-05-09T06:47:21.695Z,19.80
2023-05-09T06:49:25.054Z,19.30
2023-05-09T06:51:28.435Z,17.97
2023-05-09T06:53:32.063Z,17.50
2023-05-09T06:55:35.604Z,16.80
2023-05-09T06:57:39.540Z,16.17
2023-05-09T06:59:44.826Z,17.17
2023-05-09T07:01:48.347Z,15.90
2023-05-09T07:03:53.112Z,16.37
2023-05-09T07:05:58.891Z,17.30
2023-05-09T07:08:02.313Z,16.57
2023-05-09T07:10:11.257Z,15.60
2023-05-09T07:12:15.080Z,16.10
2023-05-09T07:14:18.466Z,15.30
2023-05-09T07:16:23.064Z,15.20
2023-05-09T07:18:26.602Z,14.80
2023-05-09T07:20:31.533Z,15.30
2023-05-09T07:22:37.431Z,13.93
2023-05-09T07:24:41.224Z,15.83
2023-05-09T07:26:44.638Z,15.27
2023-05-09T07:28:47.998Z,13.23
2023-05-09T07:30:51.466Z,12.90
2023-05-09T07:32:54.933Z,13.80
2023-05-09T07:34:58.633Z,12.07
2023-05-09T07:37:03.347Z,12.70
2023-05-09T07:39:07.265Z,11.40
2023-05-09T07:41:11.486Z,11.93
2023-05-09T07:43:14.995Z,12.30
2023-05-09T07:45:19.902Z,11.50
2023-05-09T07:47:25.164Z,11.80
2023-05-09T07:49:28.788Z,9.97
2023-05-09T07:51:32.281Z,10.00
2023-05-09T07:53:37.052Z,10.43
2023-05-09T07:55:40.529Z,10.70
2023-05-09T07:57:44.015Z,10.57
2023-05-09T07:59:47.373Z,9.13
2023-05-09T08:01:50.905Z,8.60
2023-05-09T08:03:54.770Z,8.10
2023-05-09T08:05:58.239Z,7.87
2023-05-09T08:08:01.648Z,6.37
2023-05-09T08:10:07.651Z,6.00
2023-05-09T08:12:11.164Z,6.17
2023-05-09T08:14:15.629Z,6.17
2023-05-09T08:16:19.408Z,6.20
2023-05-09T08:18:22.850Z,6.13
2023-05-09T08:20:26.371Z,6.20
2023-05-09T08:22:29.834Z,5.40
2023-05-09T08:24:33.366Z,5.87
2023-05-09T08:26:38.162Z,5.73
2023-05-09T08:28:41.723Z,7.00
2023-05-09T08:30:45.056Z,6.67
2023-05-09T08:32:48.590Z,7.30
2023-05-09T08:34:52.272Z,5.30
2023-05-09T08:36:55.685Z,5.97
2023-05-09T08:38:59.099Z,6.40
2023-05-09T08:41:03.416Z,5.83
2023-05-09T08:43:08.939Z,5.27
2023-05-09T08:45:15.353Z,6.93
2023-05-09T08:47:21.112Z,5.53
2023-05-09T08:49:25.205Z,5.10
2023-05-09T08:51:32.226Z,5.20
2023-05-09T08:53:35.652Z,4.63
2023-05-09T08:55:39.858Z,4.07
2023-05-09T08:57:43.641Z,3.50
2023-05-09T08:59:50.260Z,2.83
2023-05-09T09:01:54.902Z,2.97
2023-05-09T09:03:58.526Z,2.93
2023-05-09T09:06:02.529Z,2.27
2023-05-09T09:08:10.925Z,2.80
2023-05-09T09:10:15.082Z,3.10
2023-05-09T09:12:19.356Z,3.00
2023-05-09T09:14:26.593Z,3.20
2023-05-09T09:16:34.325Z,3.10
2023-05-09T09:18:39.537Z,3.60
2023-05-09T09:20:48.754Z,3.23
2023-05-09T09:22:55.939Z,2.77
2023-05-09T09:24:59.421Z,2.37
2023-05-09T09:27:07.415Z,3.33
2023-05-09T09:29:11.197Z,1.83
2023-05-09T09:31:21.799Z,2.67
2023-05-09T09:33:27.874Z,2.70
2023-05-09T09:35:39.893Z,3.40
2023-05-09T09:37:43.773Z,3.00
2023-05-09T09:39:55.773Z,2.87
2023-05-09T09:42:11.369Z,2.40
2023-05-09T09:44:17.185Z,2.67
2023-05-09T09:46:20.668Z,3.67
2023-05-09T09:48:33.546Z,2.60
2023-05-09T09:50:39.331Z,2.23
2023-05-09T09:52:45.747Z,3.13
2023-05-09T09:54:49.364Z,3.00
2023-05-09T09:56:54.689Z,2.87
2023-05-09T09:59:10.168Z,2.80
2023-05-09T10:01:16.447Z,3.50
2023-05-09T10:03:20.062Z,2.80
2023-05-09T10:05:26.122Z,2.40
2023-05-09T10:07:35.449Z,3.03
2023-05-09T10:09:38.898Z,3.20
2023-05-09T10:11:42.436Z,2.90
2023-05-09T10:13:46.803Z,2.50
2023-05-09T10:15:53.998Z,2.50
2023-05-09T10:18:00.906Z,3.33
2023-05-09T10:20:06.934Z,2.27
2023-05-09T10:22:12.867Z,2.80
2023-05-09T10:24:18.171Z,8.17
2023-05-09T10:26:27.578Z,6.43
2023-05-09T10:28:33.753Z,3.03
2023-05-09T10:30:45.305Z,2.70
2023-05-09T10:32:54.924Z,3.20
2023-05-09T10:35:05.778Z,3.60
2023-05-09T10:37:11.647Z,3.60
2023-05-09T10:39:15.732Z,3.00
2023-05-09T10:41:19.717Z,3.67
2023-05-09T10:43:25.244Z,3.17
2023-05-09T10:45:29.092Z,2.43
2023-05-09T10:47:33.383Z,2.53
2023-05-09T10:49:37.486Z,2.10
2023-05-09T10:51:41.939Z,2.77
2023-05-09T10:53:48.653Z,2.63
2023-05-09T10:55:55.483Z,3.63
2023-05-09T10:58:20.010Z,3.00
2023-05-09T11:00:26.186Z,4.90
2023-05-09T11:02:32.238Z,3.63
2023-05-09T11:04:35.671Z,3.20
2023-05-09T11:06:45.280Z,5.03
2023-05-09T11:08:50.056Z,3.00
2023-05-09T11:10:54.425Z,3.40
2023-05-09T11:12:59.423Z,3.37
2023-05-09T11:15:07.450Z,4.30
2023-05-09T11:17:13.213Z,3.20
2023-05-09T11:19:34.992Z,4.10
2023-05-09T11:21:38.455Z,3.00
2023-05-09T11:23:42.003Z,3.00
2023-05-09T11:25:48.984Z,2.93
2023-05-09T11:27:53.111Z,2.77
2023-05-09T11:29:58.308Z,3.47
2023-05-09T11:32:08.202Z,2.70
2023-05-09T11:34:13.193Z,3.30
2023-05-09T11:36:18.701Z,4.40
2023-05-09T11:38:22.871Z,3.80
2023-05-09T11:40:26.881Z,3.50
2023-05-09T11:42:32.604Z,4.07
2023-05-09T11:44:37.268Z,4.83
2023-05-09T11:46:40.640Z,4.80
2023-05-09T11:48:44.062Z,3.30
2023-05-09T11:50:49.608Z,2.87
2023-05-09T11:52:53.082Z,2.97
2023-05-09T11:54:56.516Z,4.50
2023-05-09T11:57:00.821Z,4.33
2023-05-09T11:59:05.820Z,2.80
2023-05-09T12:01:12.579Z,3.17
2023-05-09T12:03:16.487Z,3.47
2023-05-09T12:05:21.954Z,4.00
2023-05-09T12:07:26.134Z,4.03
2023-05-09T12:09:32.464Z,6.73
2023-05-09T12:11:37.313Z,3.80
2023-05-09T12:13:47.441Z,3.30
2023-05-09T12:15:52.428Z,3.10
2023-05-09T12:18:02.794Z,2.90
2023-05-09T12:20:07.396Z,3.07
2023-05-09T12:22:10.850Z,3.13
2023-05-09T12:24:14.247Z,3.83
2023-05-09T12:26:17.655Z,6.43
2023-05-09T12:28:22.050Z,2.93
2023-05-09T12:30:25.504Z,3.33
2023-05-09T12:32:32.942Z,3.60
2023-05-09T12:34:36.505Z,3.33
2023-05-09T12:36:40.144Z,3.13
2023-05-09T12:38:53.722Z,2.90
2023-05-09T12:41:03.681Z,2.93
2023-05-09T12:43:08.578Z,2.90
2023-05-09T12:45:12.817Z,3.50
2023-05-09T12:47:16.679Z,3.57
2023-05-09T12:49:24.907Z,2.90
2023-05-09T12:51:28.328Z,3.30
2023-05-09T12:53:32.121Z,2.73
2023-05-09T12:55:41.415Z,7.13
2023-05-09T12:57:57.697Z,4.30
2023-05-09T13:00:02.243Z,2.83
2023-05-09T13:02:05.653Z,4.67
2023-05-09T13:04:10.544Z,3.50
2023-05-09T13:06:16.611Z,3.00
2023-05-09T13:08:22.271Z,3.03
2023-05-09T13:10:28.330Z,4.27
2023-05-09T13:12:31.858Z,5.00
2023-05-09T13:14:35.251Z,3.83
2023-05-09T13:16:38.702Z,5.77
2023-05-09T13:18:42.023Z,3.63
2023-05-09T13:20:45.444Z,2.70
2023-05-09T13:22:50.289Z,3.30
2023-05-09T13:24:53.653Z,4.23
2023-05-09T13:26:57.099Z,5.10
2023-05-09T13:29:00.837Z,5.33
2023-05-09T13:31:04.308Z,2.70
2023-05-09T13:33:23.875Z,3.00
2023-05-09T13:35:29.592Z,3.20
2023-05-09T13:37:32.907Z,3.90
2023-05-09T13:39:37.706Z,2.97
2023-05-09T13:41:41.124Z,4.20
2023-05-09T13:43:44.648Z,2.77
2023-05-09T13:45:48.126Z,4.43
2023-05-09T13:47:51.838Z,4.73
2023-05-09T13:49:55.260Z,3.00
2023-05-09T13:51:58.543Z,3.43
2023-05-09T13:54:01.992Z,3.20
2023-05-09T13:56:09.171Z,5.70
2023-05-09T13:58:13.008Z,3.27
2023-05-09T14:00:17.731Z,3.27
2023-05-09T14:02:21.300Z,4.30
2023-05-09T14:04:24.703Z,2.23
2023-05-09T14:06:28.960Z,2.70
2023-05-09T14:08:33.122Z,2.47
2023-05-09T14:10:36.557Z,4.20
2023-05-09T14:12:44.300Z,3.90
2023-05-09T14:14:47.908Z,4.73
2023-05-09T14:16:52.118Z,4.80
2023-05-09T14:18:55.482Z,5.67
2023-05-09T14:20:59.031Z,8.27
2023-05-09T14:23:02.517Z,6.67
2023-05-09T14:25:06.535Z,8.63
2023-05-09T14:27:10.010Z,8.83
2023-05-09T14:29:15.060Z,7.53
2023-05-09T14:31:18.461Z,8.87
2023-05-09T14:33:21.955Z,7.30
2023-05-09T14:35:25.456Z,7.73
2023-05-09T14:37:29.483Z,7.93
2023-05-09T14:39:32.929Z,7.30
2023-05-09T14:41:36.350Z,7.90
2023-05-09T14:43:39.814Z,8.27
2023-05-09T14:45:44.608Z,7.33
2023-05-09T14:47:48.225Z,6.03
2023-05-09T14:49:52.183Z,6.77
2023-05-09T14:51:55.684Z,5.53
2023-05-09T14:53:59.120Z,5.47
2023-05-09T14:56:02.719Z,6.40
2023-05-09T14:58:09.417Z,5.07
2023-05-09T15:00:21.146Z,5.10
2023-05-09T15:02:27.220Z,6.73
2023-05-09T15:04:31.254Z,5.77
2023-05-09T15:06:35.021Z,6.40
2023-05-09T15:08:39.225Z,7.20
2023-05-09T15:10:42.684Z,7.43
2023-05-09T15:12:46.087Z,7.60
2023-05-09T15:14:53.690Z,8.40
2023-05-09T15:16:59.949Z,6.97
2023-05-09T15:19:05.803Z,7.20
2023-05-09T15:21:09.264Z,9.37
2023-05-09T15:23:13.177Z,8.57
2023-05-09T15:25:17.561Z,6.73
2023-05-09T15:27:21.068Z,7.17
2023-05-09T15:29:24.428Z,7.37
2023-05-09T15:31:27.811Z,7.23
2023-05-09T15:33:31.320Z,7.80
2023-05-09T15:35:36.025Z,9.13
2023-05-09T15:37:39.501Z,8.73
2023-05-09T15:39:43.654Z,10.20
2023-05-09T15:41:47.057Z,11.27
2023-05-09T15:43:50.442Z,7.43
2023-05-09T15:45:53.954Z,6.13
2023-05-09T15:47:57.429Z,7.60
2023-05-09T15:50:00.913Z,7.70
2023-05-09T15:52:06.045Z,7.30
2023-05-09T15:54:09.683Z,7.17
2023-05-09T15:56:13.006Z,8.40
2023-05-09T15:58:16.521Z,7.03
2023-05-09T16:00:20.079Z,9.00
2023-05-09T16:02:23.957Z,8.20
2023-05-09T16:04:27.703Z,8.40
2023-05-09T16:06:32.845Z,9.07
2023-05-09T16:08:37.598Z,8.53
2023-05-09T16:10:40.945Z,7.10
2023-05-09T16:12:44.392Z,7.53
2023-05-09T16:14:47.780Z,6.40
2023-05-09T16:16:53.466Z,7.10
2023-05-09T16:18:57.073Z,5.67
2023-05-09T16:21:00.572Z,5.00
2023-05-09T16:23:04.912Z,4.73
2023-05-09T16:25:09.898Z,5.33
2023-05-09T16:27:14.370Z,6.63
2023-05-09T16:29:17.820Z,6.30
2023-05-09T16:31:21.795Z,5.43
2023-05-09T16:33:25.218Z,6.80
2023-05-09T16:35:28.722Z,8.43
2023-05-09T16:37:33.511Z,7.90
2023-05-09T16:39:38.693Z,6.93
2023-05-09T16:41:43.344Z,5.40
2023-05-09T16:43:46.770Z,5.83
2023-05-09T16:45:50.333Z,7.23
2023-05-09T16:47:55.564Z,5.00
2023-05-09T16:49:59.114Z,4.63
2023-05-09T16:52:02.496Z,5.00
2023-05-09T16:54:05.922Z,4.60
2023-05-09T16:56:11.068Z,8.47
2023-05-09T16:58:15.770Z,4.40
2023-05-09T17:00:20.070Z,5.27
2023-05-09T17:02:23.554Z,6.40
2023-05-09T17:04:27.418Z,6.60
2023-05-09T17:06:30.868Z,6.20
2023-05-09T17:08:34.286Z,5.40
2023-05-09T17:10:38.921Z,4.90
2023-05-09T17:12:43.912Z,5.00
2023-05-09T17:14:49.112Z,5.20
2023-05-09T17:16:52.587Z,5.07
2023-05-09T17:18:56.095Z,7.87
2023-05-09T17:20:59.390Z,6.70
2023-05-09T17:23:02.744Z,6.97
2023-05-09T17:25:07.164Z,7.00
2023-05-09T17:27:11.346Z,7.73
2023-05-09T17:29:14.701Z,8.47
2023-05-09T17:31:19.455Z,13.20
2023-05-09T17:33:22.844Z,10.93
2023-05-09T17:35:26.672Z,9.27
2023-05-09T17:37:30.181Z,8.93
2023-05-09T17:39:33.551Z,7.33
2023-05-09T17:41:37.684Z,9.80
2023-05-09T17:43:41.052Z,21.67
2023-05-09T17:45:45.957Z,18.07
2023-05-09T17:47:50.810Z,9.03
2023-05-09T17:49:54.218Z,5.13
2023-05-09T17:51:57.607Z,3.47
2023-05-09T17:54:00.896Z,3.47
2023-05-09T17:56:04.385Z,3.23
2023-05-09T17:58:07.982Z,2.50
2023-05-09T18:00:12.927Z,3.10
2023-05-09T18:02:23.705Z,1.70
2023-05-09T18:04:30.723Z,2.50
2023-05-09T18:06:34.123Z,2.50
2023-05-09T18:08:37.673Z,1.50
2023-05-09T18:10:41.907Z,1.93
2023-05-09T18:12:45.819Z,2.30
2023-05-09T18:14:49.304Z,2.70
2023-05-09T18:16:52.728Z,2.70
2023-05-09T18:18:56.214Z,3.90
2023-05-09T18:21:01.069Z,2.43
2023-05-09T18:23:04.444Z,1.93
2023-05-09T18:25:08.426Z,3.63
2023-05-09T18:27:11.776Z,2.40
2023-05-09T18:29:15.190Z,1.70
2023-05-09T18:31:18.644Z,1.60
2023-05-09T18:33:23.460Z,2.03
2023-05-09T18:35:26.950Z,1.97
2023-05-09T18:37:31.782Z,1.60
2023-05-09T18:39:35.109Z,1.40
2023-05-09T18:41:38.514Z,1.30
2023-05-09T18:43:45.884Z,1.43
2023-05-09T18:45:49.569Z,1.73
2023-05-09T18:47:52.961Z,1.50
2023-05-09T18:49:56.449Z,1.30
2023-05-09T18:52:00.174Z,1.40
2023-05-09T18:54:05.180Z,1.90
2023-05-09T18:56:09.183Z,1.77
2023-05-09T18:58:13.524Z,2.47
2023-05-09T19:00:17.543Z,1.63
2023-05-09T19:02:22.389Z,2.00
2023-05-09T19:04:25.988Z,2.50
2023-05-09T19:06:29.590Z,2.37
2023-05-09T19:08:32.969Z,4.40
2023-05-09T19:10:37.934Z,2.70
2023-05-09T19:12:41.616Z,4.47
2023-05-09T19:14:45.047Z,3.40
2023-05-09T19:16:48.544Z,2.63
2023-05-09T19:18:52.124Z,2.50
2023-05-09T19:20:55.477Z,1.60
2023-05-09T19:22:59.211Z,1.60
2023-05-09T19:25:02.596Z,1.00
2023-05-09T19:27:07.657Z,1.23
2023-05-09T19:29:11.067Z,1.47
2023-05-09T19:31:15.038Z,0.90
2023-05-09T19:33:19.449Z,0.87
2023-05-09T19:35:23.066Z,1.73
2023-05-09T19:37:26.528Z,0.97
2023-05-09T19:39:29.898Z,1.30
2023-05-09T19:41:33.246Z,1.20
2023-05-09T19:43:38.006Z,1.20
2023-05-09T19:45:41.407Z,1.20
2023-05-09T19:47:44.966Z,1.83
2023-05-09T19:49:48.381Z,1.33
2023-05-09T19:51:51.731Z,2.53
2023-05-09T19:53:55.072Z,1.80
2023-05-09T19:55:58.665Z,1.63
2023-05-09T19:58:02.100Z,1.60
2023-05-09T20:00:08.102Z,2.43
2023-05-09T20:02:11.559Z,3.20
2023-05-09T20:04:14.910Z,1.60
2023-05-09T20:06:18.379Z,1.67
2023-05-09T20:08:21.837Z,1.70
2023-05-09T20:10:25.272Z,1.10
2023-05-09T20:12:30.155Z,1.57
2023-05-09T20:14:33.937Z,1.30
2023-05-09T20:16:38.772Z,1.50
2023-05-09T20:18:42.459Z,1.50
2023-05-09T20:20:46.109Z,1.20
2023-05-09T20:22:49.467Z,1.97
2023-05-09T20:24:52.960Z,2.03
2023-05-09T20:26:56.390Z,1.60
2023-05-09T20:29:01.459Z,1.40
2023-05-09T20:31:05.040Z,1.53
2023-05-09T20:33:09.809Z,1.73
2023-05-09T20:35:13.211Z,1.87
2023-05-09T20:37:17.030Z,2.27
2023-05-09T20:39:21.031Z,2.00
2023-05-09T20:41:24.708Z,1.17
2023-05-09T20:43:28.280Z,1.53
2023-05-09T20:45:31.848Z,2.40
2023-05-09T20:47:35.563Z,1.60
2023-05-09T20:49:40.468Z,1.70
2023-05-09T20:51:44.135Z,1.93
2023-05-09T20:53:47.599Z,1.90
2023-05-09T20:55:50.883Z,1.87
2023-05-09T20:57:54.226Z,3.70
2023-05-09T20:59:57.565Z,2.83
2023-05-09T21:02:01.145Z,2.53
2023-05-09T21:04:05.722Z,2.50
2023-05-09T21:06:10.940Z,2.30
2023-05-09T21:08:14.339Z,2.67
2023-05-09T21:10:18.227Z,1.80
2023-05-09T21:12:21.924Z,2.60
2023-05-09T21:14:25.284Z,2.80
2023-05-09T21:16:28.949Z,2.00
2023-05-09T21:18:32.426Z,2.30
2023-05-09T21:20:35.813Z,2.50
2023-05-09T21:22:40.515Z,3.27
2023-05-09T21:24:43.867Z,2.67
2023-05-09T21:26:47.182Z,4.20
2023-05-09T21:28:50.557Z,4.50
2023-05-09T21:30:54.278Z,8.57
2023-05-09T21:32:57.612Z,3.37
2023-05-09T21:35:00.955Z,2.90
2023-05-09T21:37:04.285Z,3.20
2023-05-09T21:39:09.812Z,3.17
2023-05-09T21:41:13.079Z,3.50
2023-05-09T21:43:18.039Z,3.23
2023-05-09T21:45:21.381Z,3.83
2023-05-09T21:47:24.942Z,5.03
2023-05-09T21:49:29.118Z,3.40
2023-05-09T21:51:33.382Z,4.30
2023-05-09T21:53:36.741Z,3.50
2023-05-09T21:55:41.788Z,2.80
2023-05-09T21:57:45.167Z,3.70
2023-05-09T21:59:48.487Z,3.40
2023-05-09T22:01:51.934Z,3.83
2023-05-09T22:03:55.311Z,3.10
2023-05-09T22:05:58.752Z,3.87
2023-05-09T22:08:02.451Z,3.10
2023-05-09T22:10:07.112Z,4.00
2023-05-09T22:12:11.820Z,4.67
2023-05-09T22:14:15.225Z,3.47
2023-05-09T22:16:18.586Z,3.43
2023-05-09T22:18:22.236Z,3.80
2023-05-09T22:20:25.949Z,4.03
2023-05-09T22:22:29.702Z,4.80
2023-05-09T22:24:33.002Z,3.30
2023-05-09T22:26:36.332Z,3.63
2023-05-09T22:28:41.102Z,3.60
2023-05-09T22:30:44.465Z,5.47
2023-05-09T22:32:47.886Z,3.90
2023-05-09T22:34:51.274Z,4.97
2023-05-09T22:36:55.159Z,4.20
2023-05-09T22:38:58.503Z,4.73
2023-05-09T22:41:01.839Z,4.77
2023-05-09T22:43:05.122Z,4.97
2023-05-09T22:45:11.038Z,4.73
2023-05-09T22:47:16.407Z,5.23
2023-05-09T22:49:19.895Z,4.73
2023-05-09T22:51:23.916Z,5.67
2023-05-09T22:53:28.092Z,5.40
2023-05-09T22:55:31.477Z,5.67
2023-05-09T22:57:34.910Z,5.00
2023-05-09T22:59:38.309Z,4.90
2023-05-09T23:01:43.216Z,4.60
2023-05-09T23:03:46.780Z,4.77
2023-05-09T23:05:50.232Z,6.30
2023-05-09T23:07:53.712Z,6.17
2023-05-09T23:09:57.176Z,4.77
2023-05-09T23:12:01.136Z,5.97
2023-05-09T23:14:04.782Z,5.47
2023-05-09T23:16:08.089Z,6.23
2023-05-09T23:18:12.950Z,4.90
2023-05-09T23:20:16.814Z,5.10
2023-05-09T23:22:20.373Z,5.90
2023-05-09T23:24:23.696Z,4.63
2023-05-09T23:26:27.237Z,6.07
2023-05-09T23:28:30.931Z,6.07
2023-05-09T23:30:34.315Z,6.33
2023-05-09T23:32:37.924Z,5.47
2023-05-09T23:34:42.600Z,4.90
2023-05-09T23:36:46.015Z,11.57
2023-05-09T23:38:49.335Z,4.80
2023-05-09T23:40:54.017Z,5.17
2023-05-09T23:42:57.367Z,5.90
2023-05-09T23:45:00.758Z,5.80
2023-05-09T23:47:04.467Z,5.87
2023-05-09T23:49:07.878Z,6.33
2023-05-09T23:51:13.024Z,5.13
2023-05-09T23:53:16.556Z,7.27
2023-05-09T23:55:20.003Z,7.30
2023-05-09T23:57:23.428Z,6.40
2023-05-09T23:59:26.884Z,9.10
